createdAt,value
2019-05-30T00:00:18.125Z,102542.94
2019-05-30T00:02:50.327Z,102538.23
2019-05-30T00:05:22.547Z,102536.37
2019-05-30T00:07:56.039Z,102537.45
2019-05-30T00:10:28.101Z,102538.09
2019-05-30T00:13:00.749Z,102536.80
2019-05-30T00:15:32.752Z,102540.08
2019-05-30T00:18:05.053Z,102548.25
2019-05-30T00:20:37.023Z,102543.88
2019-05-30T00:23:09.282Z,102544.86
2019-05-30T00:25:41.335Z,102548.84
2019-05-30T00:28:13.364Z,102547.68
2019-05-30T00:30:45.335Z,102545.05
2019-05-30T00:33:17.563Z,102547.58
2019-05-30T00:35:49.565Z,102547.78
2019-05-30T00:38:21.544Z,102548.98
2019-05-30T00:40:53.816Z,102542.58
2019-05-30T00:43:25.847Z,102546.69
2019-05-30T00:45:57.962Z,102549.25
2019-05-30T00:48:29.943Z,102546.42
2019-05-30T00:51:02.658Z,102540.67
2019-05-30T00:53:36.001Z,102527.27
2019-05-30T00:56:08.130Z,102544.02
2019-05-30T00:58:40.103Z,102543.74
2019-05-30T01:01:13.009Z,102478.11
2019-05-30T01:03:44.960Z,102544.41
2019-05-30T01:06:17.010Z,102545.59
2019-05-30T01:08:49.023Z,102540.87
2019-05-30T01:11:21.039Z,102541.41
2019-05-30T01:13:52.981Z,102537.50
2019-05-30T01:16:25.031Z,102536.47
2019-05-30T01:18:57.063Z,102471.93
2019-05-30T01:21:29.126Z,102533.19
2019-05-30T01:24:01.362Z,102526.13
2019-05-30T01:26:33.299Z,102528.78
2019-05-30T01:29:05.588Z,102524.58
2019-05-30T01:31:38.179Z,102521.13
2019-05-30T01:34:10.154Z,102520.12
2019-05-30T01:36:42.496Z,102523.34
2019-05-30T01:39:14.920Z,102523.16
2019-05-30T01:41:46.965Z,102521.47
2019-05-30T01:44:18.941Z,102523.39
2019-05-30T01:46:51.378Z,102521.45
2019-05-30T01:49:23.419Z,102517.28
2019-05-30T01:51:55.383Z,102516.03
2019-05-30T01:54:27.336Z,102516.77
2019-05-30T01:57:00.308Z,102518.13
2019-05-30T01:59:32.450Z,102521.09
2019-05-30T02:02:05.189Z,102516.58
2019-05-30T02:04:37.191Z,102516.87
2019-05-30T02:07:09.459Z,102511.06
2019-05-30T02:09:41.441Z,102513.84
2019-05-30T02:12:13.421Z,102515.67
2019-05-30T02:14:45.380Z,102511.67
2019-05-30T02:17:17.383Z,102452.51
2019-05-30T02:19:49.331Z,102512.27
2019-05-30T02:22:21.397Z,102518.73
2019-05-30T02:24:53.432Z,102511.30
2019-05-30T02:27:25.583Z,102513.63
2019-05-30T02:29:57.750Z,102505.88
2019-05-30T02:32:29.976Z,102506.03
2019-05-30T02:35:03.485Z,102505.70
2019-05-30T02:37:35.715Z,102507.60
2019-05-30T02:40:12.239Z,102517.27
2019-05-30T02:42:42.338Z,102519.11
2019-05-30T02:45:14.982Z,102517.09
2019-05-30T02:47:46.949Z,102512.38
2019-05-30T02:50:19.748Z,102508.38
2019-05-30T02:52:51.751Z,102506.71
2019-05-30T02:55:23.723Z,102517.22
2019-05-30T02:57:55.687Z,102514.16
2019-05-30T03:00:37.012Z,102515.23
2019-05-30T03:03:11.516Z,102509.71
2019-05-30T03:05:43.120Z,102507.41
2019-05-30T03:08:15.226Z,102509.53
2019-05-30T03:10:47.215Z,102516.48
2019-05-30T03:13:19.501Z,102516.28
2019-05-30T03:15:51.920Z,102521.02
2019-05-30T03:18:23.956Z,102515.83
2019-05-30T03:20:55.961Z,102519.52
2019-05-30T03:23:28.610Z,102515.13
2019-05-30T03:26:02.422Z,102514.59
2019-05-30T03:28:34.330Z,102512.38
2019-05-30T03:31:20.378Z,102509.05
2019-05-30T03:33:43.232Z,102502.76
2019-05-30T03:36:28.367Z,102500.56
2019-05-30T03:38:49.310Z,102504.94
2019-05-30T03:41:21.383Z,102499.06
2019-05-30T03:43:53.348Z,102499.28
2019-05-30T03:46:38.672Z,102498.09
2019-05-30T03:49:18.057Z,102500.70
2019-05-30T03:51:52.254Z,102500.37
2019-05-30T03:54:26.348Z,102496.38
2019-05-30T03:57:15.644Z,102495.91
2019-05-30T03:59:58.067Z,102496.45
2019-05-30T04:02:55.192Z,102499.28
2019-05-30T04:05:16.051Z,102492.61
2019-05-30T04:07:52.771Z,102489.34
2019-05-30T04:10:29.447Z,102489.70
2019-05-30T04:13:23.511Z,102489.23
2019-05-30T04:15:55.548Z,102489.26
2019-05-30T04:18:27.581Z,102493.91
2019-05-30T04:20:59.901Z,102486.14
2019-05-30T04:23:31.887Z,102484.72
2019-05-30T04:26:03.986Z,102480.87
2019-05-30T04:28:36.046Z,102482.73
2019-05-30T04:31:08.098Z,102477.13
2019-05-30T04:33:40.710Z,102477.77
2019-05-30T04:36:12.728Z,102473.30
2019-05-30T04:38:44.784Z,102474.02
2019-05-30T04:41:19.202Z,102420.97
2019-05-30T04:43:50.523Z,102460.55
2019-05-30T04:46:22.619Z,102463.83
2019-05-30T04:48:54.908Z,102460.76
2019-05-30T04:51:26.914Z,102461.41
2019-05-30T04:53:58.878Z,102457.64
2019-05-30T04:56:30.822Z,102453.89
2019-05-30T04:59:02.858Z,102454.23
2019-05-30T05:01:34.805Z,102453.87
2019-05-30T05:04:06.793Z,102449.23
2019-05-30T05:06:38.813Z,102446.00
2019-05-30T05:09:11.965Z,102445.04
2019-05-30T05:11:44.129Z,102447.05
2019-05-30T05:14:16.362Z,102450.03
2019-05-30T05:16:48.517Z,102438.08
2019-05-30T05:19:22.238Z,102440.19
2019-05-30T05:21:54.511Z,102437.81
2019-05-30T05:24:26.568Z,102437.69
2019-05-30T05:26:58.633Z,102435.89
2019-05-30T05:29:30.647Z,102438.33
2019-05-30T05:32:02.587Z,102430.31
2019-05-30T05:34:34.628Z,102430.11
2019-05-30T05:37:06.617Z,102424.31
2019-05-30T05:39:39.087Z,102425.39
2019-05-30T05:42:11.045Z,102422.02
2019-05-30T05:44:43.015Z,102425.66
2019-05-30T05:47:16.298Z,102415.28
2019-05-30T05:49:48.452Z,102417.16
2019-05-30T05:52:20.708Z,102412.14
2019-05-30T05:54:52.808Z,102412.64
2019-05-30T05:57:25.065Z,102409.23
2019-05-30T05:59:56.975Z,102403.02
2019-05-30T06:02:28.936Z,102395.32
2019-05-30T06:05:00.958Z,102393.56
2019-05-30T06:07:32.924Z,102385.86
2019-05-30T06:10:06.199Z,102391.09
2019-05-30T06:12:38.173Z,102389.77
2019-05-30T06:15:10.354Z,102384.59
2019-05-30T06:17:42.301Z,102386.09
2019-05-30T06:20:14.843Z,102384.00
2019-05-30T06:22:46.864Z,102387.36
2019-05-30T06:25:21.849Z,102374.41
2019-05-30T06:27:52.741Z,102375.34
2019-05-30T06:30:24.827Z,102368.25
2019-05-30T06:32:56.808Z,102364.04
2019-05-30T06:35:29.481Z,102355.95
2019-05-30T06:38:01.921Z,102362.23
2019-05-30T06:40:33.891Z,102361.14
2019-05-30T06:43:06.091Z,102358.05
2019-05-30T06:45:38.115Z,102354.83
2019-05-30T06:48:10.085Z,102352.34
2019-05-30T06:50:42.113Z,102350.11
2019-05-30T06:53:14.317Z,102353.33
2019-05-30T06:55:46.279Z,102352.88
2019-05-30T06:58:18.262Z,102344.23
2019-05-30T07:00:50.478Z,102346.31
2019-05-30T07:03:22.520Z,102349.22
2019-05-30T07:05:54.982Z,102355.11
2019-05-30T07:08:28.801Z,102348.98
2019-05-30T07:11:00.875Z,102333.09
2019-05-30T07:13:33.692Z,102325.28
2019-05-30T07:16:06.005Z,102322.66
2019-05-30T07:18:37.971Z,102319.31
2019-05-30T07:21:09.945Z,102321.87
2019-05-30T07:23:42.236Z,102321.03
2019-05-30T07:26:14.429Z,102324.34
2019-05-30T07:28:46.704Z,102324.00
2019-05-30T07:31:18.813Z,102322.42
2019-05-30T07:33:51.073Z,102320.70
2019-05-30T07:36:24.104Z,102329.05
2019-05-30T07:38:56.087Z,102323.56
2019-05-30T07:41:28.785Z,102325.06
2019-05-30T07:44:00.838Z,102321.63
2019-05-30T07:46:33.059Z,102320.45
2019-05-30T07:49:05.341Z,102311.53
2019-05-30T07:51:37.311Z,102306.08
2019-05-30T07:54:09.250Z,102310.41
2019-05-30T07:56:41.285Z,102303.31
2019-05-30T07:59:13.587Z,102301.13
2019-05-30T08:01:45.691Z,102300.00
2019-05-30T08:04:17.910Z,102299.77
2019-05-30T08:06:49.990Z,102294.30
2019-05-30T08:09:21.997Z,102300.48
2019-05-30T08:11:54.307Z,102293.43
2019-05-30T08:14:26.996Z,102294.52
2019-05-30T08:16:59.552Z,102298.51
2019-05-30T08:19:32.720Z,102297.05
2019-05-30T08:22:05.444Z,102294.94
2019-05-30T08:24:38.887Z,102283.87
2019-05-30T08:27:11.014Z,102283.03
2019-05-30T08:29:43.004Z,102280.03
2019-05-30T08:32:15.332Z,102277.68
2019-05-30T08:34:47.467Z,102275.75
2019-05-30T08:37:19.751Z,102270.41
2019-05-30T08:39:51.999Z,102268.22
2019-05-30T08:42:27.645Z,102261.67
2019-05-30T08:44:57.853Z,102258.86
2019-05-30T08:47:29.869Z,102259.28
2019-05-30T08:50:01.931Z,102255.20
2019-05-30T08:52:34.417Z,102260.34
2019-05-30T08:55:08.548Z,102250.81
2019-05-30T08:57:41.140Z,102246.40
2019-05-30T09:00:18.493Z,102240.67
2019-05-30T09:02:50.512Z,102236.86
2019-05-30T09:05:22.967Z,102236.22
2019-05-30T09:07:55.202Z,102237.56
2019-05-30T09:10:27.233Z,102230.06
2019-05-30T09:12:59.283Z,102232.81
2019-05-30T09:15:31.931Z,102229.69
2019-05-30T09:18:03.999Z,102229.16
2019-05-30T09:20:37.943Z,102229.41
2019-05-30T09:23:09.726Z,102223.61
2019-05-30T09:25:41.733Z,102217.32
2019-05-30T09:28:14.037Z,102225.45
2019-05-30T09:30:46.523Z,102224.03
2019-05-30T09:33:18.630Z,102180.13
2019-05-30T09:35:52.173Z,102217.77
2019-05-30T09:38:24.163Z,102216.42
2019-05-30T09:40:56.427Z,102215.06
2019-05-30T09:43:28.486Z,102166.64
2019-05-30T09:46:00.498Z,102202.67
2019-05-30T09:48:32.451Z,102208.53
2019-05-30T09:51:04.503Z,102204.52
2019-05-30T09:53:37.184Z,102202.66
2019-05-30T09:56:09.535Z,102203.36
2019-05-30T09:58:42.738Z,102195.71
2019-05-30T10:01:15.111Z,102196.63
2019-05-30T10:03:48.466Z,102191.23
2019-05-30T10:06:29.021Z,102191.84
2019-05-30T10:08:54.088Z,102194.91
2019-05-30T10:11:26.308Z,102189.06
2019-05-30T10:13:58.287Z,102190.91
2019-05-30T10:16:30.368Z,102188.72
2019-05-30T10:19:02.314Z,102189.66
2019-05-30T10:21:34.611Z,102188.81
2019-05-30T10:24:06.655Z,102183.02
2019-05-30T10:26:38.590Z,102178.96
2019-05-30T10:29:10.540Z,102179.86
2019-05-30T10:31:42.683Z,102131.89
2019-05-30T10:34:14.776Z,102172.68
2019-05-30T10:36:48.740Z,102181.00
2019-05-30T10:39:20.759Z,102172.11
2019-05-30T10:41:53.136Z,102170.30
2019-05-30T10:44:25.430Z,102174.34
2019-05-30T10:46:57.500Z,102175.18
2019-05-30T10:49:34.717Z,102168.58
2019-05-30T10:52:03.295Z,102167.50
2019-05-30T10:54:35.254Z,102173.65
2019-05-30T10:57:07.537Z,102165.51
2019-05-30T10:59:39.667Z,102169.24
2019-05-30T11:02:11.613Z,102164.63
2019-05-30T11:04:43.646Z,102160.80
2019-05-30T11:08:01.313Z,102165.19
2019-05-30T11:10:37.836Z,102160.53
2019-05-30T11:13:16.542Z,102155.92
2019-05-30T11:15:49.900Z,102154.91
2019-05-30T11:18:23.098Z,102164.66
2019-05-30T11:20:56.290Z,102109.55
2019-05-30T11:23:28.475Z,102156.22
2019-05-30T11:26:00.505Z,102156.63
2019-05-30T11:28:32.546Z,102157.47
2019-05-30T11:31:04.981Z,102165.82
2019-05-30T11:33:37.206Z,102169.69
2019-05-30T11:36:09.287Z,102152.31
2019-05-30T11:38:41.231Z,102154.25
2019-05-30T11:41:13.282Z,102162.91
2019-05-30T11:43:45.253Z,102112.36
2019-05-30T11:46:17.361Z,102164.97
2019-05-30T11:48:49.639Z,102157.70
2019-05-30T11:51:21.767Z,102129.66
2019-05-30T11:53:53.868Z,102166.94
2019-05-30T11:56:25.920Z,102166.81
2019-05-30T11:58:58.141Z,102166.45
2019-05-30T12:01:30.135Z,102169.30
2019-05-30T12:04:02.155Z,102174.42
2019-05-30T12:06:34.100Z,102183.55
2019-05-30T12:09:08.073Z,102135.72
2019-05-30T12:11:40.088Z,102194.07
2019-05-30T12:14:12.134Z,102197.14
2019-05-30T12:16:44.282Z,102201.28
2019-05-30T12:19:16.674Z,102208.28
2019-05-30T12:21:48.998Z,102211.91
2019-05-30T12:24:20.949Z,102214.70
2019-05-30T12:26:53.847Z,102220.16
2019-05-30T12:29:26.253Z,102230.02
2019-05-30T12:32:00.252Z,102216.61
2019-05-30T12:34:31.969Z,102214.55
2019-05-30T12:37:04.092Z,102212.23
2019-05-30T12:39:36.071Z,102236.66
2019-05-30T12:42:08.090Z,102214.88
2019-05-30T12:44:40.047Z,102218.59
2019-05-30T12:47:12.046Z,102214.91
2019-05-30T12:49:44.006Z,102215.39
2019-05-30T12:52:16.219Z,102212.77
2019-05-30T12:54:48.570Z,102210.47
2019-05-30T12:57:20.583Z,102209.70
2019-05-30T12:59:52.599Z,102207.88
2019-05-30T13:02:24.805Z,102217.50
2019-05-30T13:04:57.030Z,102209.27
2019-05-30T13:07:28.959Z,102208.47
2019-05-30T13:10:01.357Z,102198.23
2019-05-30T13:12:33.656Z,102205.02
2019-05-30T13:15:08.157Z,102199.95
2019-05-30T13:17:40.113Z,102195.42
2019-05-30T13:20:14.484Z,102199.43
2019-05-30T13:22:46.749Z,102199.38
2019-05-30T13:25:20.984Z,102203.61
2019-05-30T13:27:53.048Z,102206.61
2019-05-30T13:30:26.491Z,102201.47
2019-05-30T13:32:58.564Z,102192.80
2019-05-30T13:35:30.776Z,102200.77
2019-05-30T13:38:03.216Z,102198.22
2019-05-30T13:40:35.236Z,102195.14
2019-05-30T13:43:08.029Z,102154.02
2019-05-30T13:45:40.175Z,102202.44
2019-05-30T13:48:12.293Z,102202.61
2019-05-30T13:50:45.094Z,102190.17
2019-05-30T13:53:17.206Z,102198.55
2019-05-30T13:55:49.351Z,102212.48
2019-05-30T13:58:22.799Z,102211.03
2019-05-30T14:00:54.843Z,102214.33
2019-05-30T14:03:26.936Z,102221.78
2019-05-30T14:05:59.932Z,102216.80
2019-05-30T14:08:41.222Z,102208.73
2019-05-30T14:11:06.783Z,102209.19
2019-05-30T14:13:38.944Z,102205.91
2019-05-30T14:16:11.139Z,102205.38
2019-05-30T14:18:43.339Z,102197.27
2019-05-30T14:21:15.385Z,102196.25
2019-05-30T14:23:47.750Z,102203.88
2019-05-30T14:26:19.915Z,102204.06
2019-05-30T14:28:52.284Z,102212.75
2019-05-30T14:31:24.336Z,102213.42
2019-05-30T14:33:56.324Z,102218.36
2019-05-30T14:36:28.409Z,102217.28
2019-05-30T14:39:00.352Z,102224.13
2019-05-30T14:41:32.519Z,102220.73
2019-05-30T14:44:05.140Z,102226.37
2019-05-30T14:46:37.157Z,102230.37
2019-05-30T14:49:09.197Z,102232.92
2019-05-30T14:51:41.555Z,102238.61
2019-05-30T14:54:15.190Z,102230.60
2019-05-30T14:56:47.272Z,102235.05
2019-05-30T14:59:19.400Z,102235.89
2019-05-30T15:01:51.409Z,102189.32
2019-05-30T15:04:23.773Z,102236.64
2019-05-30T15:06:55.818Z,102238.58
2019-05-30T15:09:28.102Z,102247.03
2019-05-30T15:12:00.173Z,102192.97
2019-05-30T15:14:32.474Z,102184.66
2019-05-30T15:17:04.450Z,102234.70
2019-05-30T15:19:36.787Z,102233.86
2019-05-30T15:22:09.848Z,102235.41
2019-05-30T15:24:42.556Z,102232.18
2019-05-30T15:27:14.704Z,102227.88
2019-05-30T15:29:46.691Z,102233.42
2019-05-30T15:32:18.740Z,102236.70
2019-05-30T15:34:50.802Z,102234.88
2019-05-30T15:37:22.798Z,102223.48
2019-05-30T15:39:54.869Z,102231.72
2019-05-30T15:42:26.925Z,102233.03
2019-05-30T15:44:58.921Z,102227.41
2019-05-30T15:47:31.241Z,102227.80
2019-05-30T15:50:03.308Z,102230.18
2019-05-30T15:52:35.290Z,102227.64
2019-05-30T15:55:09.488Z,102232.25
2019-05-30T15:57:41.685Z,102228.13
2019-05-30T16:00:16.116Z,102218.96
2019-05-30T16:02:48.262Z,102228.72
2019-05-30T16:05:21.130Z,102225.91
2019-05-30T16:07:53.433Z,102224.80
2019-05-30T16:10:26.835Z,102227.89
2019-05-30T16:12:58.899Z,102229.23
2019-05-30T16:15:30.936Z,102219.78
2019-05-30T16:18:02.889Z,102223.84
2019-05-30T16:20:34.991Z,102227.09
2019-05-30T16:23:06.985Z,102179.14
2019-05-30T16:25:38.984Z,102221.95
2019-05-30T16:28:10.919Z,102222.16
2019-05-30T16:30:42.951Z,102224.41
2019-05-30T16:33:15.949Z,102221.54
2019-05-30T16:35:48.064Z,102221.41
2019-05-30T16:38:20.182Z,102209.90
2019-05-30T16:40:52.122Z,102207.66
2019-05-30T16:43:24.093Z,102198.00
2019-05-30T16:45:56.249Z,102200.83
2019-05-30T16:48:28.369Z,102202.11
2019-05-30T16:51:00.392Z,102199.41
2019-05-30T16:53:33.691Z,102196.50
2019-05-30T16:56:06.252Z,102198.91
2019-05-30T16:58:38.507Z,102198.41
2019-05-30T17:01:13.564Z,102197.48
2019-05-30T17:03:45.608Z,102196.86
2019-05-30T17:06:18.108Z,102197.23
2019-05-30T17:08:50.135Z,102199.72
2019-05-30T17:11:23.449Z,102199.14
2019-05-30T17:13:55.434Z,102205.12
2019-05-30T17:16:27.663Z,102198.58
2019-05-30T17:18:59.698Z,102206.98
2019-05-30T17:21:31.754Z,102209.18
2019-05-30T17:24:03.973Z,102208.85
2019-05-30T17:26:35.933Z,102206.48
2019-05-30T17:29:07.961Z,102202.20
2019-05-30T17:31:40.018Z,102198.67
2019-05-30T17:34:12.048Z,102202.08
2019-05-30T17:36:44.065Z,102194.47
2019-05-30T17:39:16.055Z,102195.64
2019-05-30T17:41:48.083Z,102198.50
2019-05-30T17:44:21.042Z,102152.53
2019-05-30T17:46:53.212Z,102202.38
2019-05-30T17:49:25.862Z,102206.05
2019-05-30T17:51:57.879Z,102204.64
2019-05-30T17:54:30.053Z,102201.15
2019-05-30T17:57:02.084Z,102208.59
2019-05-30T17:59:34.063Z,102166.47
2019-05-30T18:02:06.131Z,102215.00
2019-05-30T18:04:38.319Z,102214.05
2019-05-30T18:07:10.360Z,102214.63
2019-05-30T18:09:42.420Z,102216.30
2019-05-30T18:12:14.488Z,102214.64
2019-05-30T18:14:46.541Z,102217.64
2019-05-30T18:17:18.486Z,102176.91
2019-05-30T18:19:50.473Z,102224.75
2019-05-30T18:22:23.388Z,102221.05
2019-05-30T18:24:55.478Z,102174.88
2019-05-30T18:27:28.037Z,102222.51
2019-05-30T18:30:00.110Z,102223.75
2019-05-30T18:32:32.548Z,102225.59
2019-05-30T18:35:06.814Z,102216.53
2019-05-30T18:37:39.953Z,102219.69
2019-05-30T18:40:15.078Z,102226.30
2019-05-30T18:42:47.052Z,102224.22
2019-05-30T18:45:24.930Z,102223.02
2019-05-30T18:47:56.846Z,102222.27
2019-05-30T18:50:29.368Z,102231.50
2019-05-30T18:53:01.403Z,102222.41
2019-05-30T18:55:33.375Z,102227.92
2019-05-30T18:58:07.543Z,102179.50
2019-05-30T19:00:40.048Z,102226.84
2019-05-30T19:03:11.999Z,102230.45
2019-05-30T19:05:44.143Z,102228.89
2019-05-30T19:08:16.482Z,102227.10
2019-05-30T19:10:48.922Z,102230.76
2019-05-30T19:13:20.904Z,102229.84
2019-05-30T19:15:52.830Z,102230.59
2019-05-30T19:18:25.364Z,102231.92
2019-05-30T19:20:57.548Z,102228.31
2019-05-30T19:23:30.059Z,102232.79
2019-05-30T19:26:02.047Z,102186.35
2019-05-30T19:28:34.647Z,102242.84
2019-05-30T19:31:06.898Z,102246.20
2019-05-30T19:33:38.858Z,102252.35
2019-05-30T19:36:10.917Z,102252.31
2019-05-30T19:38:43.712Z,102251.19
2019-05-30T19:41:15.778Z,102251.31
2019-05-30T19:43:47.922Z,102252.73
2019-05-30T19:46:19.995Z,102258.28
2019-05-30T19:48:52.263Z,102261.98
2019-05-30T19:51:24.857Z,102257.45
2019-05-30T19:53:57.037Z,102258.73
2019-05-30T19:56:29.237Z,102256.45
2019-05-30T19:59:01.247Z,102256.95
2019-05-30T20:01:38.062Z,102268.95
2019-05-30T20:04:10.183Z,102272.91
2019-05-30T20:06:42.152Z,102267.54
2019-05-30T20:09:14.212Z,102274.01
2019-05-30T20:12:02.206Z,102273.84
2019-05-30T20:14:19.945Z,102275.30
2019-05-30T20:16:51.951Z,102222.27
2019-05-30T20:19:24.927Z,102269.98
2019-05-30T20:21:56.892Z,102266.74
2019-05-30T20:24:28.859Z,102264.62
2019-05-30T20:27:00.884Z,102256.68
2019-05-30T20:29:33.002Z,102239.09
2019-05-30T20:32:05.551Z,102258.00
2019-05-30T20:34:38.892Z,102264.81
2019-05-30T20:37:10.940Z,102265.93
2019-05-30T20:39:43.011Z,102272.66
2019-05-30T20:42:19.245Z,102269.75
2019-05-30T20:44:49.581Z,102271.20
2019-05-30T20:47:21.707Z,102270.91
2019-05-30T20:49:53.676Z,102274.94
2019-05-30T20:52:25.708Z,102274.86
2019-05-30T20:54:58.005Z,102275.94
2019-05-30T20:57:30.118Z,102273.28
2019-05-30T21:00:02.159Z,102274.77
2019-05-30T21:02:34.657Z,102276.59
2019-05-30T21:05:09.744Z,102278.03
2019-05-30T21:07:44.524Z,102291.23
2019-05-30T21:10:16.928Z,102284.84
2019-05-30T21:12:51.529Z,102278.99
2019-05-30T21:15:23.708Z,102278.12
2019-05-30T21:17:59.378Z,102281.19
2019-05-30T21:20:31.451Z,102300.05
2019-05-30T21:23:03.414Z,102301.05
2019-05-30T21:25:37.089Z,102296.27
2019-05-30T21:28:09.385Z,102296.23
2019-05-30T21:30:41.427Z,102293.56
2019-05-30T21:33:13.692Z,102291.82
2019-05-30T21:35:46.016Z,102297.30
2019-05-30T21:38:18.127Z,102297.63
2019-05-30T21:40:50.103Z,102303.37
2019-05-30T21:43:22.067Z,102303.90
2019-05-30T21:45:54.033Z,102303.03
2019-05-30T21:48:26.261Z,102305.27
2019-05-30T21:50:58.237Z,102314.65
2019-05-30T21:53:30.210Z,102314.56
2019-05-30T21:56:02.341Z,102308.91
2019-05-30T21:58:34.416Z,102308.50
2019-05-30T22:01:22.712Z,102309.12
2019-05-30T22:03:54.669Z,102302.05
2019-05-30T22:06:26.956Z,102305.36
2019-05-30T22:09:03.059Z,102305.07
2019-05-30T22:11:33.137Z,102313.04
2019-05-30T22:14:05.843Z,102312.41
2019-05-30T22:16:37.832Z,102319.38
2019-05-30T22:19:09.809Z,102305.89
2019-05-30T22:21:42.024Z,102297.87
2019-05-30T22:24:14.126Z,102302.06
2019-05-30T22:26:46.373Z,102298.56
2019-05-30T22:29:18.486Z,102295.40
2019-05-30T22:31:50.997Z,102297.72
2019-05-30T22:34:23.072Z,102295.97
2019-05-30T22:36:55.066Z,102295.83
2019-05-30T22:39:27.032Z,102294.50
2019-05-30T22:41:59.012Z,102293.78
2019-05-30T22:44:31.029Z,102295.84
2019-05-30T22:47:03.057Z,102289.08
2019-05-30T22:49:35.015Z,102286.66
2019-05-30T22:52:07.049Z,102281.88
2019-05-30T22:54:39.016Z,102280.51
2019-05-30T22:57:11.006Z,102279.22
2019-05-30T22:59:43.295Z,102277.64
2019-05-30T23:02:15.274Z,102284.86
2019-05-30T23:04:48.085Z,102278.55
2019-05-30T23:07:20.113Z,102286.70
2019-05-30T23:09:52.157Z,102284.80
2019-05-30T23:12:24.190Z,102282.90
2019-05-30T23:14:56.347Z,102281.37
2019-05-30T23:17:28.439Z,102278.42
2019-05-30T23:20:00.443Z,102271.73
2019-05-30T23:22:32.438Z,102276.39
2019-05-30T23:25:07.715Z,102274.07
2019-05-30T23:27:39.700Z,102272.04
2019-05-30T23:30:12.281Z,102265.61
2019-05-30T23:32:44.340Z,102262.08
2019-05-30T23:35:16.488Z,102255.40
2019-05-30T23:37:48.523Z,102259.18
2019-05-30T23:40:21.093Z,102250.46
2019-05-30T23:42:53.315Z,102254.73
2019-05-30T23:45:25.301Z,102202.08
2019-05-30T23:47:57.649Z,102248.34
2019-05-30T23:50:29.711Z,102249.92
2019-05-30T23:53:01.984Z,102243.88
2019-05-30T23:55:34.028Z,102243.13
2019-05-30T23:58:05.977Z,102239.22
